sensor_id;sensor_type;location;lat;lon;timestamp;P1;durP1;ratioP1;P2;durP2;ratioP2
3299;SDS011;1662;49.310;8.134;2023-09-19T00:00:21;1.73;;;1.50;;
3299;SDS011;1662;49.310;8.134;2023-09-19T00:02:57;2.33;;;1.90;;
3299;SDS011;1662;49.310;8.134;2023-09-19T00:05:29;2.10;;;2.00;;
3299;SDS011;1662;49.310;8.134;2023-09-19T00:08:00;1.83;;;1.73;;
3299;SDS011;1662;49.310;8.134;2023-09-19T00:10:29;2.63;;;2.03;;
3299;SDS011;1662;49.310;8.134;2023-09-19T00:12:56;2.27;;;2.17;;
3299;SDS011;1662;49.310;8.134;2023-09-19T00:15:23;2.10;;;2.00;;
3299;SDS011;1662;49.310;8.134;2023-09-19T00:17:51;2.80;;;1.90;;
3299;SDS011;1662;49.310;8.134;2023-09-19T00:20:17;1.87;;;1.77;;
3299;SDS011;1662;49.310;8.134;2023-09-19T00:22:48;2.13;;;1.90;;
3299;SDS011;1662;49.310;8.134;2023-09-19T00:25:14;1.93;;;1.83;;
3299;SDS011;1662;49.310;8.134;2023-09-19T00:27:45;2.40;;;2.17;;
3299;SDS011;1662;49.310;8.134;2023-09-19T00:30:17;5.03;;;1.80;;
3299;SDS011;1662;49.310;8.134;2023-09-19T00:32:49;2.43;;;1.73;;
3299;SDS011;1662;49.310;8.134;2023-09-19T00:35:19;1.90;;;1.80;;
3299;SDS011;1662;49.310;8.134;2023-09-19T00:37:51;1.90;;;1.80;;
3299;SDS011;1662;49.310;8.134;2023-09-19T00:40:17;3.50;;;2.30;;
3299;SDS011;1662;49.310;8.134;2023-09-19T00:42:44;2.17;;;1.87;;
3299;SDS011;1662;49.310;8.134;2023-09-19T00:45:13;3.60;;;1.97;;
3299;SDS011;1662;49.310;8.134;2023-09-19T00:47:42;4.40;;;1.70;;
3299;SDS011;1662;49.310;8.134;2023-09-19T00:50:10;4.43;;;1.83;;
3299;SDS011;1662;49.310;8.134;2023-09-19T00:52:39;2.27;;;2.17;;
3299;SDS011;1662;49.310;8.134;2023-09-19T00:55:13;2.23;;;2.03;;
3299;SDS011;1662;49.310;8.134;2023-09-19T00:57:41;2.90;;;1.83;;
3299;SDS011;1662;49.310;8.134;2023-09-19T01:00:09;2.30;;;2.10;;
3299;SDS011;1662;49.310;8.134;2023-09-19T01:02:39;4.33;;;2.07;;
3299;SDS011;1662;49.310;8.134;2023-09-19T01:05:07;2.30;;;2.20;;
3299;SDS011;1662;49.310;8.134;2023-09-19T01:07:34;2.83;;;2.27;;
3299;SDS011;1662;49.310;8.134;2023-09-19T01:10:04;2.23;;;1.97;;
3299;SDS011;1662;49.310;8.134;2023-09-19T01:12:57;2.07;;;1.97;;
3299;SDS011;1662;49.310;8.134;2023-09-19T01:15:21;5.90;;;2.33;;
3299;SDS011;1662;49.310;8.134;2023-09-19T01:31:33;4.90;;;2.97;;
3299;SDS011;1662;49.310;8.134;2023-09-19T01:34:02;2.93;;;2.73;;
3299;SDS011;1662;49.310;8.134;2023-09-19T01:36:34;2.40;;;2.20;;
3299;SDS011;1662;49.310;8.134;2023-09-19T01:39:10;3.00;;;2.30;;
3299;SDS011;1662;49.310;8.134;2023-09-19T01:44:52;2.60;;;2.40;;
3299;SDS011;1662;49.310;8.134;2023-09-19T01:47:13;2.73;;;1.97;;
3299;SDS011;1662;49.310;8.134;2023-09-19T01:52:49;2.27;;;2.13;;
3299;SDS011;1662;49.310;8.134;2023-09-19T01:55:22;2.70;;;2.33;;
3299;SDS011;1662;49.310;8.134;2023-09-19T02:00:44;2.10;;;2.00;;
3299;SDS011;1662;49.310;8.134;2023-09-19T02:03:13;2.03;;;1.93;;
3299;SDS011;1662;49.310;8.134;2023-09-19T02:05:40;1.93;;;1.83;;
3299;SDS011;1662;49.310;8.134;2023-09-19T02:08:06;2.23;;;2.07;;
3299;SDS011;1662;49.310;8.134;2023-09-19T02:10:32;1.93;;;1.77;;
3299;SDS011;1662;49.310;8.134;2023-09-19T02:12:59;1.90;;;1.70;;
3299;SDS011;1662;49.310;8.134;2023-09-19T02:15:25;1.97;;;1.87;;
3299;SDS011;1662;49.310;8.134;2023-09-19T02:17:50;2.00;;;1.90;;
3299;SDS011;1662;49.310;8.134;2023-09-19T02:20:16;2.00;;;1.73;;
3299;SDS011;1662;49.310;8.134;2023-09-19T02:22:42;2.77;;;2.03;;
3299;SDS011;1662;49.310;8.134;2023-09-19T02:25:07;2.67;;;2.47;;
3299;SDS011;1662;49.310;8.134;2023-09-19T02:27:33;3.10;;;2.07;;
3299;SDS011;1662;49.310;8.134;2023-09-19T02:29:59;2.23;;;2.13;;
3299;SDS011;1662;49.310;8.134;2023-09-19T02:32:28;4.43;;;2.67;;
3299;SDS011;1662;49.310;8.134;2023-09-19T02:34:56;2.10;;;1.90;;
3299;SDS011;1662;49.310;8.134;2023-09-19T02:37:23;2.40;;;2.20;;
3299;SDS011;1662;49.310;8.134;2023-09-19T02:39:50;4.43;;;2.63;;
3299;SDS011;1662;49.310;8.134;2023-09-19T02:42:16;2.80;;;2.60;;
3299;SDS011;1662;49.310;8.134;2023-09-19T02:44:42;2.60;;;2.40;;
3299;SDS011;1662;49.310;8.134;2023-09-19T02:47:07;3.20;;;2.90;;
3299;SDS011;1662;49.310;8.134;2023-09-19T02:49:33;2.77;;;2.37;;
3299;SDS011;1662;49.310;8.134;2023-09-19T02:51:59;3.60;;;2.93;;
3299;SDS011;1662;49.310;8.134;2023-09-19T02:54:25;6.40;;;2.80;;
3299;SDS011;1662;49.310;8.134;2023-09-19T02:56:53;3.07;;;2.87;;
3299;SDS011;1662;49.310;8.134;2023-09-19T02:59:19;4.07;;;2.77;;
3299;SDS011;1662;49.310;8.134;2023-09-19T03:01:44;4.83;;;2.70;;
3299;SDS011;1662;49.310;8.134;2023-09-19T03:04:13;4.60;;;2.90;;
3299;SDS011;1662;49.310;8.134;2023-09-19T03:06:44;3.93;;;2.67;;
3299;SDS011;1662;49.310;8.134;2023-09-19T03:09:10;2.30;;;2.20;;
3299;SDS011;1662;49.310;8.134;2023-09-19T03:11:36;3.00;;;2.70;;
3299;SDS011;1662;49.310;8.134;2023-09-19T03:14:02;2.50;;;2.30;;
3299;SDS011;1662;49.310;8.134;2023-09-19T03:16:30;4.17;;;2.90;;
3299;SDS011;1662;49.310;8.134;2023-09-19T03:18:56;4.33;;;3.27;;
3299;SDS011;1662;49.310;8.134;2023-09-19T03:21:23;6.73;;;2.40;;
3299;SDS011;1662;49.310;8.134;2023-09-19T03:23:49;4.33;;;2.50;;
3299;SDS011;1662;49.310;8.134;2023-09-19T03:26:14;2.97;;;2.73;;
3299;SDS011;1662;49.310;8.134;2023-09-19T03:28:41;3.30;;;3.10;;
3299;SDS011;1662;49.310;8.134;2023-09-19T03:31:08;3.50;;;3.20;;
3299;SDS011;1662;49.310;8.134;2023-09-19T03:33:33;5.30;;;3.13;;
3299;SDS011;1662;49.310;8.134;2023-09-19T03:35:59;10.77;;;3.13;;
3299;SDS011;1662;49.310;8.134;2023-09-19T03:38:30;2.93;;;2.73;;
3299;SDS011;1662;49.310;8.134;2023-09-19T03:40:59;3.30;;;3.20;;
3299;SDS011;1662;49.310;8.134;2023-09-19T03:43:25;2.83;;;2.63;;
3299;SDS011;1662;49.310;8.134;2023-09-19T03:45:50;5.43;;;2.77;;
3299;SDS011;1662;49.310;8.134;2023-09-19T03:48:18;3.40;;;3.10;;
3299;SDS011;1662;49.310;8.134;2023-09-19T03:50:44;2.53;;;2.33;;
3299;SDS011;1662;49.310;8.134;2023-09-19T03:53:10;3.47;;;2.93;;
3299;SDS011;1662;49.310;8.134;2023-09-19T03:55:35;3.93;;;3.30;;
3299;SDS011;1662;49.310;8.134;2023-09-19T03:58:01;3.70;;;2.47;;
3299;SDS011;1662;49.310;8.134;2023-09-19T04:00:27;3.33;;;3.13;;
3299;SDS011;1662;49.310;8.134;2023-09-19T04:02:55;2.73;;;2.30;;
3299;SDS011;1662;49.310;8.134;2023-09-19T04:05:22;2.87;;;2.63;;
3299;SDS011;1662;49.310;8.134;2023-09-19T04:07:47;4.70;;;2.87;;
3299;SDS011;1662;49.310;8.134;2023-09-19T04:10:13;2.30;;;2.20;;
3299;SDS011;1662;49.310;8.134;2023-09-19T04:12:52;4.20;;;2.90;;
3299;SDS011;1662;49.310;8.134;2023-09-19T04:15:18;5.13;;;2.77;;
3299;SDS011;1662;49.310;8.134;2023-09-19T04:17:44;2.70;;;2.50;;
3299;SDS011;1662;49.310;8.134;2023-09-19T04:20:12;6.30;;;2.60;;
3299;SDS011;1662;49.310;8.134;2023-09-19T04:22:40;2.57;;;2.33;;
3299;SDS011;1662;49.310;8.134;2023-09-19T04:25:06;3.90;;;3.13;;
3299;SDS011;1662;49.310;8.134;2023-09-19T04:27:33;3.23;;;2.97;;
3299;SDS011;1662;49.310;8.134;2023-09-19T04:30:01;4.23;;;2.70;;
3299;SDS011;1662;49.310;8.134;2023-09-19T04:32:34;3.00;;;2.77;;
3299;SDS011;1662;49.310;8.134;2023-09-19T04:35:01;2.70;;;2.43;;
3299;SDS011;1662;49.310;8.134;2023-09-19T04:37:30;2.50;;;2.30;;
3299;SDS011;1662;49.310;8.134;2023-09-19T04:39:56;2.60;;;2.50;;
3299;SDS011;1662;49.310;8.134;2023-09-19T04:42:22;3.33;;;2.60;;
3299;SDS011;1662;49.310;8.134;2023-09-19T04:44:50;3.37;;;2.10;;
3299;SDS011;1662;49.310;8.134;2023-09-19T04:47:17;4.77;;;2.53;;
3299;SDS011;1662;49.310;8.134;2023-09-19T04:49:43;2.57;;;2.37;;
3299;SDS011;1662;49.310;8.134;2023-09-19T04:52:08;2.53;;;2.23;;
3299;SDS011;1662;49.310;8.134;2023-09-19T04:54:34;6.10;;;2.50;;
3299;SDS011;1662;49.310;8.134;2023-09-19T04:57:00;4.10;;;2.57;;
3299;SDS011;1662;49.310;8.134;2023-09-19T04:59:26;4.40;;;2.63;;
3299;SDS011;1662;49.310;8.134;2023-09-19T05:01:53;4.80;;;2.60;;
3299;SDS011;1662;49.310;8.134;2023-09-19T05:04:18;2.90;;;2.27;;
3299;SDS011;1662;49.310;8.134;2023-09-19T05:06:44;2.40;;;2.30;;
3299;SDS011;1662;49.310;8.134;2023-09-19T05:09:10;4.40;;;1.87;;
3299;SDS011;1662;49.310;8.134;2023-09-19T05:11:35;4.73;;;2.67;;
3299;SDS011;1662;49.310;8.134;2023-09-19T05:14:03;4.30;;;2.70;;
3299;SDS011;1662;49.310;8.134;2023-09-19T05:16:29;2.57;;;2.43;;
3299;SDS011;1662;49.310;8.134;2023-09-19T05:18:58;6.00;;;2.50;;
3299;SDS011;1662;49.310;8.134;2023-09-19T05:21:25;2.10;;;2.00;;
3299;SDS011;1662;49.310;8.134;2023-09-19T05:23:53;2.63;;;2.47;;
3299;SDS011;1662;49.310;8.134;2023-09-19T05:26:24;3.33;;;3.00;;
3299;SDS011;1662;49.310;8.134;2023-09-19T05:28:49;2.57;;;2.47;;
3299;SDS011;1662;49.310;8.134;2023-09-19T05:31:15;3.23;;;2.87;;
3299;SDS011;1662;49.310;8.134;2023-09-19T05:33:43;5.47;;;2.80;;
3299;SDS011;1662;49.310;8.134;2023-09-19T05:36:11;3.23;;;3.03;;
3299;SDS011;1662;49.310;8.134;2023-09-19T05:38:37;2.90;;;2.70;;
3299;SDS011;1662;49.310;8.134;2023-09-19T05:41:05;4.03;;;2.60;;
3299;SDS011;1662;49.310;8.134;2023-09-19T05:43:31;4.73;;;2.57;;
3299;SDS011;1662;49.310;8.134;2023-09-19T05:45:59;2.60;;;2.50;;
3299;SDS011;1662;49.310;8.134;2023-09-19T05:48:25;2.70;;;2.50;;
3299;SDS011;1662;49.310;8.134;2023-09-19T05:50:50;5.07;;;2.33;;
3299;SDS011;1662;49.310;8.134;2023-09-19T05:53:16;3.60;;;2.57;;
3299;SDS011;1662;49.310;8.134;2023-09-19T05:55:42;2.30;;;2.20;;
3299;SDS011;1662;49.310;8.134;2023-09-19T05:58:08;2.90;;;2.63;;
3299;SDS011;1662;49.310;8.134;2023-09-19T06:00:34;3.00;;;2.70;;
3299;SDS011;1662;49.310;8.134;2023-09-19T06:03:03;5.40;;;2.63;;
3299;SDS011;1662;49.310;8.134;2023-09-19T06:05:28;5.70;;;2.73;;
3299;SDS011;1662;49.310;8.134;2023-09-19T06:07:57;3.10;;;2.90;;
3299;SDS011;1662;49.310;8.134;2023-09-19T06:10:26;5.73;;;3.20;;
3299;SDS011;1662;49.310;8.134;2023-09-19T06:12:53;2.57;;;2.37;;
3299;SDS011;1662;49.310;8.134;2023-09-19T06:15:22;2.90;;;2.70;;
3299;SDS011;1662;49.310;8.134;2023-09-19T06:17:53;5.83;;;3.73;;
3299;SDS011;1662;49.310;8.134;2023-09-19T06:20:21;2.77;;;2.67;;
3299;SDS011;1662;49.310;8.134;2023-09-19T06:22:48;3.40;;;3.10;;
3299;SDS011;1662;49.310;8.134;2023-09-19T06:25:14;2.27;;;2.17;;
3299;SDS011;1662;49.310;8.134;2023-09-19T06:27:48;3.73;;;2.87;;
3299;SDS011;1662;49.310;8.134;2023-09-19T06:30:17;3.53;;;3.23;;
3299;SDS011;1662;49.310;8.134;2023-09-19T06:32:43;2.70;;;2.50;;
3299;SDS011;1662;49.310;8.134;2023-09-19T06:35:09;2.47;;;2.27;;
3299;SDS011;1662;49.310;8.134;2023-09-19T06:37:39;3.60;;;2.77;;
3299;SDS011;1662;49.310;8.134;2023-09-19T06:40:07;4.00;;;2.70;;
3299;SDS011;1662;49.310;8.134;2023-09-19T06:42:43;2.53;;;2.33;;
3299;SDS011;1662;49.310;8.134;2023-09-19T06:45:10;3.20;;;2.40;;
3299;SDS011;1662;49.310;8.134;2023-09-19T06:47:47;3.43;;;2.77;;
3299;SDS011;1662;49.310;8.134;2023-09-19T06:50:19;2.13;;;1.93;;
3299;SDS011;1662;49.310;8.134;2023-09-19T06:52:47;3.67;;;3.10;;
3299;SDS011;1662;49.310;8.134;2023-09-19T06:55:15;3.07;;;2.37;;
3299;SDS011;1662;49.310;8.134;2023-09-19T06:57:42;2.60;;;2.23;;
3299;SDS011;1662;49.310;8.134;2023-09-19T07:00:11;3.73;;;2.80;;
3299;SDS011;1662;49.310;8.134;2023-09-19T07:02:59;2.87;;;2.30;;
3299;SDS011;1662;49.310;8.134;2023-09-19T07:05:26;4.60;;;2.37;;
3299;SDS011;1662;49.310;8.134;2023-09-19T07:07:53;7.23;;;2.53;;
3299;SDS011;1662;49.310;8.134;2023-09-19T07:10:21;2.90;;;2.40;;
3299;SDS011;1662;49.310;8.134;2023-09-19T07:12:54;2.73;;;2.00;;
3299;SDS011;1662;49.310;8.134;2023-09-19T07:15:23;6.33;;;2.50;;
3299;SDS011;1662;49.310;8.134;2023-09-19T07:17:52;3.83;;;2.40;;
3299;SDS011;1662;49.310;8.134;2023-09-19T07:20:19;3.13;;;2.60;;
3299;SDS011;1662;49.310;8.134;2023-09-19T07:22:45;3.13;;;2.50;;
3299;SDS011;1662;49.310;8.134;2023-09-19T07:25:13;2.97;;;2.30;;
3299;SDS011;1662;49.310;8.134;2023-09-19T07:27:39;6.20;;;2.50;;
3299;SDS011;1662;49.310;8.134;2023-09-19T07:30:05;3.60;;;2.47;;
3299;SDS011;1662;49.310;8.134;2023-09-19T07:32:33;2.47;;;2.10;;
3299;SDS011;1662;49.310;8.134;2023-09-19T07:35:01;2.47;;;2.27;;
3299;SDS011;1662;49.310;8.134;2023-09-19T07:37:28;3.07;;;2.30;;
3299;SDS011;1662;49.310;8.134;2023-09-19T07:39:56;2.83;;;2.37;;
3299;SDS011;1662;49.310;8.134;2023-09-19T07:42:21;4.67;;;2.50;;
3299;SDS011;1662;49.310;8.134;2023-09-19T07:44:47;2.10;;;2.00;;
3299;SDS011;1662;49.310;8.134;2023-09-19T07:47:15;2.30;;;2.10;;
3299;SDS011;1662;49.310;8.134;2023-09-19T07:49:41;2.40;;;1.93;;
3299;SDS011;1662;49.310;8.134;2023-09-19T07:52:12;3.10;;;2.03;;
3299;SDS011;1662;49.310;8.134;2023-09-19T07:54:38;2.20;;;2.00;;
3299;SDS011;1662;49.310;8.134;2023-09-19T07:57:06;2.40;;;2.23;;
3299;SDS011;1662;49.310;8.134;2023-09-19T07:59:34;3.67;;;2.63;;
3299;SDS011;1662;49.310;8.134;2023-09-19T08:02:03;2.23;;;2.03;;
3299;SDS011;1662;49.310;8.134;2023-09-19T08:04:29;3.97;;;3.13;;
3299;SDS011;1662;49.310;8.134;2023-09-19T08:06:58;3.00;;;2.30;;
3299;SDS011;1662;49.310;8.134;2023-09-19T08:09:24;2.40;;;2.10;;
3299;SDS011;1662;49.310;8.134;2023-09-19T08:11:53;3.37;;;2.57;;
3299;SDS011;1662;49.310;8.134;2023-09-19T08:14:23;3.27;;;2.23;;
3299;SDS011;1662;49.310;8.134;2023-09-19T08:16:50;3.90;;;2.37;;
3299;SDS011;1662;49.310;8.134;2023-09-19T08:19:16;2.33;;;2.13;;
3299;SDS011;1662;49.310;8.134;2023-09-19T08:21:41;4.33;;;2.43;;
3299;SDS011;1662;49.310;8.134;2023-09-19T08:24:11;2.33;;;2.13;;
3299;SDS011;1662;49.310;8.134;2023-09-19T08:26:37;4.50;;;2.30;;
3299;SDS011;1662;49.310;8.134;2023-09-19T08:29:05;3.27;;;2.43;;
3299;SDS011;1662;49.310;8.134;2023-09-19T08:31:37;2.20;;;2.00;;
3299;SDS011;1662;49.310;8.134;2023-09-19T08:34:05;2.43;;;2.03;;
3299;SDS011;1662;49.310;8.134;2023-09-19T08:36:30;2.30;;;2.07;;
3299;SDS011;1662;49.310;8.134;2023-09-19T08:38:56;2.90;;;2.20;;
3299;SDS011;1662;49.310;8.134;2023-09-19T08:41:21;4.57;;;2.70;;
3299;SDS011;1662;49.310;8.134;2023-09-19T08:43:47;3.43;;;2.30;;
3299;SDS011;1662;49.310;8.134;2023-09-19T08:46:16;2.33;;;2.10;;
3299;SDS011;1662;49.310;8.134;2023-09-19T08:48:45;3.30;;;2.33;;
3299;SDS011;1662;49.310;8.134;2023-09-19T08:54:19;3.20;;;1.83;;
3299;SDS011;1662;49.310;8.134;2023-09-19T08:56:56;1.77;;;1.67;;
3299;SDS011;1662;49.310;8.134;2023-09-19T08:59:33;3.40;;;2.40;;
3299;SDS011;1662;49.310;8.134;2023-09-19T09:02:00;5.33;;;2.30;;
3299;SDS011;1662;49.310;8.134;2023-09-19T09:04:26;2.90;;;2.37;;
3299;SDS011;1662;49.310;8.134;2023-09-19T09:06:52;4.40;;;2.80;;
3299;SDS011;1662;49.310;8.134;2023-09-19T09:09:20;2.93;;;2.73;;
3299;SDS011;1662;49.310;8.134;2023-09-19T09:11:45;3.37;;;2.17;;
3299;SDS011;1662;49.310;8.134;2023-09-19T09:14:18;3.47;;;2.43;;
3299;SDS011;1662;49.310;8.134;2023-09-19T09:16:44;5.80;;;2.07;;
3299;SDS011;1662;49.310;8.134;2023-09-19T09:19:10;2.30;;;2.00;;
3299;SDS011;1662;49.310;8.134;2023-09-19T09:21:38;2.40;;;2.20;;
3299;SDS011;1662;49.310;8.134;2023-09-19T09:26:53;2.90;;;2.40;;
3299;SDS011;1662;49.310;8.134;2023-09-19T09:29:38;5.03;;;2.43;;
3299;SDS011;1662;49.310;8.134;2023-09-19T09:34:49;2.90;;;1.90;;
3299;SDS011;1662;49.310;8.134;2023-09-19T09:37:19;2.50;;;2.03;;
3299;SDS011;1662;49.310;8.134;2023-09-19T09:39:50;2.80;;;2.23;;
3299;SDS011;1662;49.310;8.134;2023-09-19T09:47:59;2.57;;;2.37;;
3299;SDS011;1662;49.310;8.134;2023-09-19T09:50:34;1.90;;;1.80;;
3299;SDS011;1662;49.310;8.134;2023-09-19T09:58:30;2.77;;;2.57;;
3299;SDS011;1662;49.310;8.134;2023-09-19T10:00:57;2.10;;;2.00;;
3299;SDS011;1662;49.310;8.134;2023-09-19T10:03:34;3.30;;;2.67;;
3299;SDS011;1662;49.310;8.134;2023-09-19T10:06:08;2.77;;;2.50;;
3299;SDS011;1662;49.310;8.134;2023-09-19T10:09:06;2.00;;;1.87;;
3299;SDS011;1662;49.310;8.134;2023-09-19T10:11:35;2.27;;;2.10;;
3299;SDS011;1662;49.310;8.134;2023-09-19T10:14:04;6.07;;;2.73;;
3299;SDS011;1662;49.310;8.134;2023-09-19T10:16:33;2.13;;;2.03;;
3299;SDS011;1662;49.310;8.134;2023-09-19T10:19:02;2.30;;;2.10;;
3299;SDS011;1662;49.310;8.134;2023-09-19T10:21:35;2.63;;;2.40;;
3299;SDS011;1662;49.310;8.134;2023-09-19T10:24:04;4.57;;;2.10;;
3299;SDS011;1662;49.310;8.134;2023-09-19T10:26:34;3.00;;;2.80;;
3299;SDS011;1662;49.310;8.134;2023-09-19T10:29:01;2.60;;;2.40;;
3299;SDS011;1662;49.310;8.134;2023-09-19T10:31:29;3.57;;;2.60;;
3299;SDS011;1662;49.310;8.134;2023-09-19T10:33:58;3.37;;;2.20;;
3299;SDS011;1662;49.310;8.134;2023-09-19T10:36:27;2.37;;;2.27;;
3299;SDS011;1662;49.310;8.134;2023-09-19T10:39:01;4.77;;;2.33;;
3299;SDS011;1662;49.310;8.134;2023-09-19T10:41:32;2.83;;;2.60;;
3299;SDS011;1662;49.310;8.134;2023-09-19T10:44:01;2.50;;;2.40;;
3299;SDS011;1662;49.310;8.134;2023-09-19T10:46:32;4.20;;;2.50;;
3299;SDS011;1662;49.310;8.134;2023-09-19T10:48:59;2.93;;;2.50;;
3299;SDS011;1662;49.310;8.134;2023-09-19T10:51:29;2.10;;;1.90;;
3299;SDS011;1662;49.310;8.134;2023-09-19T10:54:11;2.30;;;2.20;;
3299;SDS011;1662;49.310;8.134;2023-09-19T10:56:50;2.80;;;2.60;;
3299;SDS011;1662;49.310;8.134;2023-09-19T10:59:19;2.47;;;2.27;;
3299;SDS011;1662;49.310;8.134;2023-09-19T11:04:37;2.30;;;2.20;;
3299;SDS011;1662;49.310;8.134;2023-09-19T11:15:00;4.60;;;2.50;;
3299;SDS011;1662;49.310;8.134;2023-09-19T11:17:40;2.80;;;1.80;;
3299;SDS011;1662;49.310;8.134;2023-09-19T11:30:41;2.37;;;2.17;;
3299;SDS011;1662;49.310;8.134;2023-09-19T11:43:51;3.10;;;2.37;;
3299;SDS011;1662;49.310;8.134;2023-09-19T11:49:17;2.70;;;2.37;;
3299;SDS011;1662;49.310;8.134;2023-09-19T11:51:48;3.00;;;2.70;;
3299;SDS011;1662;49.310;8.134;2023-09-19T11:54:19;3.80;;;2.83;;
3299;SDS011;1662;49.310;8.134;2023-09-19T11:56:53;3.30;;;2.50;;
3299;SDS011;1662;49.310;8.134;2023-09-19T11:59:22;2.40;;;2.30;;
3299;SDS011;1662;49.310;8.134;2023-09-19T12:01:53;3.20;;;2.47;;
3299;SDS011;1662;49.310;8.134;2023-09-19T12:04:33;2.90;;;2.67;;
3299;SDS011;1662;49.310;8.134;2023-09-19T12:09:38;3.63;;;3.40;;
3299;SDS011;1662;49.310;8.134;2023-09-19T12:12:05;2.80;;;2.70;;
3299;SDS011;1662;49.310;8.134;2023-09-19T12:14:32;3.03;;;2.83;;
3299;SDS011;1662;49.310;8.134;2023-09-19T12:17:00;3.57;;;2.60;;
3299;SDS011;1662;49.310;8.134;2023-09-19T12:19:28;3.43;;;3.20;;
3299;SDS011;1662;49.310;8.134;2023-09-19T12:22:01;7.13;;;3.43;;
3299;SDS011;1662;49.310;8.134;2023-09-19T12:24:31;4.20;;;3.77;;
3299;SDS011;1662;49.310;8.134;2023-09-19T12:27:01;3.17;;;2.97;;
3299;SDS011;1662;49.310;8.134;2023-09-19T12:29:31;3.60;;;3.30;;
3299;SDS011;1662;49.310;8.134;2023-09-19T12:32:08;4.13;;;2.90;;
3299;SDS011;1662;49.310;8.134;2023-09-19T12:34:34;3.40;;;3.07;;
3299;SDS011;1662;49.310;8.134;2023-09-19T12:39:48;4.47;;;3.40;;
3299;SDS011;1662;49.310;8.134;2023-09-19T12:42:20;5.20;;;3.37;;
3299;SDS011;1662;49.310;8.134;2023-09-19T12:44:54;3.50;;;3.30;;
3299;SDS011;1662;49.310;8.134;2023-09-19T12:47:22;4.20;;;3.43;;
3299;SDS011;1662;49.310;8.134;2023-09-19T12:52:54;4.23;;;4.00;;
3299;SDS011;1662;49.310;8.134;2023-09-19T12:55:28;3.47;;;3.17;;
3299;SDS011;1662;49.310;8.134;2023-09-19T12:57:58;3.60;;;3.40;;
3299;SDS011;1662;49.310;8.134;2023-09-19T13:00:43;3.40;;;3.30;;
3299;SDS011;1662;49.310;8.134;2023-09-19T13:11:13;3.47;;;3.37;;
3299;SDS011;1662;49.310;8.134;2023-09-19T13:16:09;3.43;;;3.30;;
3299;SDS011;1662;49.310;8.134;2023-09-19T13:18:43;3.50;;;3.20;;
3299;SDS011;1662;49.310;8.134;2023-09-19T13:21:10;3.83;;;3.53;;
3299;SDS011;1662;49.310;8.134;2023-09-19T13:23:52;3.87;;;3.47;;
3299;SDS011;1662;49.310;8.134;2023-09-19T13:26:39;3.30;;;3.20;;
3299;SDS011;1662;49.310;8.134;2023-09-19T13:29:15;3.40;;;3.20;;
3299;SDS011;1662;49.310;8.134;2023-09-19T13:31:52;3.67;;;3.33;;
3299;SDS011;1662;49.310;8.134;2023-09-19T13:34:18;3.60;;;3.40;;
3299;SDS011;1662;49.310;8.134;2023-09-19T13:36:47;3.73;;;3.40;;
3299;SDS011;1662;49.310;8.134;2023-09-19T13:39:13;3.57;;;3.37;;
3299;SDS011;1662;49.310;8.134;2023-09-19T13:41:41;5.33;;;3.47;;
3299;SDS011;1662;49.310;8.134;2023-09-19T13:44:07;2.87;;;2.77;;
3299;SDS011;1662;49.310;8.134;2023-09-19T13:46:35;6.40;;;3.63;;
3299;SDS011;1662;49.310;8.134;2023-09-19T13:49:02;3.60;;;3.33;;
3299;SDS011;1662;49.310;8.134;2023-09-19T13:51:30;3.43;;;3.03;;
3299;SDS011;1662;49.310;8.134;2023-09-19T13:53:56;3.00;;;2.90;;
3299;SDS011;1662;49.310;8.134;2023-09-19T13:56:22;4.03;;;3.93;;
3299;SDS011;1662;49.310;8.134;2023-09-19T13:58:53;5.33;;;3.90;;
3299;SDS011;1662;49.310;8.134;2023-09-19T14:01:19;6.33;;;3.80;;
3299;SDS011;1662;49.310;8.134;2023-09-19T14:03:45;3.43;;;3.33;;
3299;SDS011;1662;49.310;8.134;2023-09-19T14:06:15;4.03;;;3.73;;
3299;SDS011;1662;49.310;8.134;2023-09-19T14:08:41;3.93;;;3.60;;
3299;SDS011;1662;49.310;8.134;2023-09-19T14:11:09;3.70;;;3.43;;
3299;SDS011;1662;49.310;8.134;2023-09-19T14:13:35;3.83;;;3.63;;
3299;SDS011;1662;49.310;8.134;2023-09-19T14:16:04;3.80;;;3.70;;
3299;SDS011;1662;49.310;8.134;2023-09-19T14:18:30;3.63;;;3.53;;
3299;SDS011;1662;49.310;8.134;2023-09-19T14:20:56;4.23;;;3.93;;
3299;SDS011;1662;49.310;8.134;2023-09-19T14:23:22;4.20;;;3.90;;
3299;SDS011;1662;49.310;8.134;2023-09-19T14:25:48;4.13;;;3.83;;
3299;SDS011;1662;49.310;8.134;2023-09-19T14:28:15;4.30;;;4.10;;
3299;SDS011;1662;49.310;8.134;2023-09-19T14:30:40;4.00;;;3.63;;
3299;SDS011;1662;49.310;8.134;2023-09-19T14:33:06;4.53;;;4.20;;
3299;SDS011;1662;49.310;8.134;2023-09-19T14:35:32;3.93;;;3.83;;
3299;SDS011;1662;49.310;8.134;2023-09-19T14:37:58;4.10;;;3.90;;
3299;SDS011;1662;49.310;8.134;2023-09-19T14:40:23;4.13;;;3.80;;
3299;SDS011;1662;49.310;8.134;2023-09-19T14:42:50;4.70;;;3.77;;
3299;SDS011;1662;49.310;8.134;2023-09-19T14:45:18;4.97;;;4.73;;
3299;SDS011;1662;49.310;8.134;2023-09-19T14:47:47;4.47;;;4.27;;
3299;SDS011;1662;49.310;8.134;2023-09-19T14:50:13;4.13;;;3.83;;
3299;SDS011;1662;49.310;8.134;2023-09-19T14:52:40;4.10;;;4.00;;
3299;SDS011;1662;49.310;8.134;2023-09-19T14:55:06;3.80;;;3.70;;
3299;SDS011;1662;49.310;8.134;2023-09-19T14:57:34;3.90;;;3.70;;
3299;SDS011;1662;49.310;8.134;2023-09-19T15:00:05;4.20;;;4.00;;
3299;SDS011;1662;49.310;8.134;2023-09-19T15:02:37;4.17;;;3.97;;
3299;SDS011;1662;49.310;8.134;2023-09-19T15:05:04;4.03;;;3.83;;
3299;SDS011;1662;49.310;8.134;2023-09-19T15:07:31;4.13;;;4.00;;
3299;SDS011;1662;49.310;8.134;2023-09-19T15:10:01;4.60;;;4.17;;
3299;SDS011;1662;49.310;8.134;2023-09-19T15:12:27;4.17;;;3.97;;
3299;SDS011;1662;49.310;8.134;2023-09-19T15:14:54;3.83;;;3.73;;
3299;SDS011;1662;49.310;8.134;2023-09-19T15:17:19;3.80;;;3.70;;
3299;SDS011;1662;49.310;8.134;2023-09-19T15:19:50;7.13;;;4.10;;
3299;SDS011;1662;49.310;8.134;2023-09-19T15:22:16;3.53;;;3.43;;
3299;SDS011;1662;49.310;8.134;2023-09-19T15:24:41;3.67;;;3.57;;
3299;SDS011;1662;49.310;8.134;2023-09-19T15:27:07;3.70;;;3.60;;
3299;SDS011;1662;49.310;8.134;2023-09-19T15:29:33;4.03;;;3.90;;
3299;SDS011;1662;49.310;8.134;2023-09-19T15:31:58;3.77;;;3.57;;
3299;SDS011;1662;49.310;8.134;2023-09-19T15:34:27;4.30;;;3.90;;
3299;SDS011;1662;49.310;8.134;2023-09-19T15:36:54;3.70;;;3.60;;
3299;SDS011;1662;49.310;8.134;2023-09-19T15:39:22;4.03;;;3.73;;
3299;SDS011;1662;49.310;8.134;2023-09-19T15:41:48;3.93;;;3.73;;
3299;SDS011;1662;49.310;8.134;2023-09-19T15:44:16;3.83;;;3.73;;
3299;SDS011;1662;49.310;8.134;2023-09-19T15:46:43;3.93;;;3.73;;
3299;SDS011;1662;49.310;8.134;2023-09-19T15:49:09;4.07;;;3.97;;
3299;SDS011;1662;49.310;8.134;2023-09-19T15:51:38;7.80;;;7.27;;
3299;SDS011;1662;49.310;8.134;2023-09-19T15:54:09;4.03;;;3.87;;
3299;SDS011;1662;49.310;8.134;2023-09-19T15:56:43;3.67;;;3.53;;
3299;SDS011;1662;49.310;8.134;2023-09-19T15:59:09;8.13;;;3.90;;
3299;SDS011;1662;49.310;8.134;2023-09-19T16:01:37;3.93;;;3.73;;
3299;SDS011;1662;49.310;8.134;2023-09-19T16:04:03;3.97;;;3.67;;
3299;SDS011;1662;49.310;8.134;2023-09-19T16:06:30;3.40;;;3.30;;
3299;SDS011;1662;49.310;8.134;2023-09-19T16:08:57;5.17;;;3.43;;
3299;SDS011;1662;49.310;8.134;2023-09-19T16:11:24;4.77;;;4.57;;
3299;SDS011;1662;49.310;8.134;2023-09-19T16:13:52;4.33;;;3.97;;
3299;SDS011;1662;49.310;8.134;2023-09-19T16:16:19;3.87;;;3.77;;
3299;SDS011;1662;49.310;8.134;2023-09-19T16:21:23;3.47;;;3.37;;
3299;SDS011;1662;49.310;8.134;2023-09-19T16:23:50;3.80;;;3.60;;
3299;SDS011;1662;49.310;8.134;2023-09-19T16:26:17;3.30;;;3.20;;
3299;SDS011;1662;49.310;8.134;2023-09-19T16:28:47;3.37;;;3.27;;
3299;SDS011;1662;49.310;8.134;2023-09-19T16:31:16;3.70;;;3.60;;
3299;SDS011;1662;49.310;8.134;2023-09-19T16:33:43;3.87;;;3.77;;
3299;SDS011;1662;49.310;8.134;2023-09-19T16:36:10;4.40;;;4.10;;
3299;SDS011;1662;49.310;8.134;2023-09-19T16:38:36;3.67;;;3.57;;
3299;SDS011;1662;49.310;8.134;2023-09-19T16:41:03;3.80;;;3.50;;
3299;SDS011;1662;49.310;8.134;2023-09-19T16:43:29;3.27;;;3.17;;
3299;SDS011;1662;49.310;8.134;2023-09-19T16:45:58;3.90;;;3.80;;
3299;SDS011;1662;49.310;8.134;2023-09-19T16:48:24;3.90;;;3.80;;
3299;SDS011;1662;49.310;8.134;2023-09-19T16:50:50;3.73;;;3.60;;
3299;SDS011;1662;49.310;8.134;2023-09-19T16:53:20;3.40;;;3.30;;
3299;SDS011;1662;49.310;8.134;2023-09-19T16:55:46;3.50;;;3.40;;
3299;SDS011;1662;49.310;8.134;2023-09-19T16:58:12;3.70;;;3.60;;
3299;SDS011;1662;49.310;8.134;2023-09-19T17:00:38;3.70;;;3.50;;